EDT,Max TemperatureF,Mean TemperatureF,Min TemperatureF,Max Dew PointF,MeanDew PointF,Min DewpointF,Max Humidity, Mean Humidity, Min Humidity, Max Sea Level PressureIn, Mean Sea Level PressureIn, Min Sea Level PressureIn, Max VisibilityMiles, Mean VisibilityMiles, Min VisibilityMiles, Max Wind SpeedMPH, Mean Wind SpeedMPH, Max Gust SpeedMPH,PrecipitationIn, CloudCover, Events, WindDirDegrees
2013-9-1,84,78,73,72,69,66,88,80,61,29.91,29.86,29.80,10,9,7,10,6,,0.00,4,Rain-Thunderstorm,214
2013-9-2,80,76,71,73,70,68,88,83,74,29.88,29.81,29.73,10,9,2,9,2,,0.22,7,Rain-Thunderstorm,148
2013-9-3,82,74,66,70,66,55,90,75,54,29.82,29.75,29.71,10,9,4,12,5,20,0.00,6,Rain,241
2013-9-4,81,70,59,57,54,52,83,58,36,29.93,29.88,29.82,10,10,10,14,6,21,0.00,0,,252
2013-9-5,71,62,54,60,48,37,84,59,31,30.17,29.99,29.88,10,10,9,12,6,20,0.04,4,Rain,324
2013-9-6,70,58,46,44,39,35,77,53,30,30.27,30.19,30.10,10,10,10,9,3,,0.00,0,,247
2013-9-7,81,65,50,55,48,44,80,55,31,30.10,29.98,29.86,10,10,10,12,6,,0.00,2,,224
2013-9-8,73,64,53,57,47,38,73,54,33,30.12,29.88,29.77,10,10,10,17,8,30,0.00,3,,282
2013-9-9,71,58,45,47,41,37,80,55,33,30.25,30.18,30.13,10,10,10,14,4,20,0.00,0,,215
2013-9-10,75,66,57,67,60,48,88,77,70,30.17,30.10,30.04,10,9,4,15,7,21,0.13,7,Rain,203
2013-9-11,96,82,69,73,68,63,90,69,38,30.08,30.03,29.94,10,7,2,17,7,28,0.00,2,Rain-Thunderstorm,219
2013-9-12,89,77,66,71,66,64,94,75,49,29.95,29.79,29.70,10,7,1,16,5,25,1.29,5,Rain-Thunderstorm,195
2013-9-13,79,70,59,65,62,51,94,81,60,29.78,29.65,29.60,10,9,0,10,2,16,0.52,6,Rain,277
2013-9-14,69,62,54,54,51,49,83,67,52,30.07,29.92,29.79,10,10,10,13,7,17,0.00,6,,296
2013-9-15,72,60,48,50,47,43,90,64,37,30.17,30.11,30.06,10,10,10,12,3,,0.00,0,,230
2013-9-16,68,58,48,52,47,35,80,66,48,30.28,30.09,30.02,10,10,10,15,5,22,0.01,4,Rain,287
2013-9-17,64,52,41,43,37,34,77,58,37,30.45,30.38,30.31,10,10,10,13,6,20,0.00,0,,354
2013-9-18,73,58,44,46,42,35,86,58,27,30.34,30.25,30.15,10,10,10,8,3,,0.00,0,,218
2013-9-19,78,63,48,55,49,44,86,64,33,30.15,30.10,30.05,10,10,10,6,3,,0.00,0,,191
2013-9-20,80,64,50,57,53,47,89,69,42,30.11,30.06,30.01,10,10,10,7,3,,0.00,0,,108
2013-9-21,77,65,55,63,56,51,94,76,48,30.05,29.94,29.75,10,8,0,17,5,30,0.00,4,Fog,204
2013-9-22,73,64,54,64,55,40,88,70,44,29.85,29.70,29.62,10,8,2,18,9,33,0.60,6,Rain,246
2013-9-23,62,54,46,40,38,37,71,58,44,30.02,29.94,29.86,10,10,10,14,9,28,0.00,0,,302
2013-9-24,66,53,42,43,39,37,82,62,37,30.01,29.92,29.85,10,10,10,15,5,22,0.00,1,,301
2013-9-25,66,54,45,49,45,41,86,68,50,30.01,29.94,29.90,10,10,10,7,2,,0.00,4,,19
2013-9-26,68,59,52,50,46,44,80,64,45,30.15,30.07,30.02,10,10,10,8,4,,0.00,4,,12
2013-9-27,68,60,53,51,49,48,86,69,51,30.28,30.22,30.16,10,10,10,10,4,,0.00,5,,23
2013-9-28,73,60,48,53,49,45,89,72,45,30.35,30.31,30.28,10,9,2,9,2,,0.00,0,,74
2013-9-29,69,58,48,52,47,43,94,81,42,30.29,30.24,30.15,10,5,0,7,0,,0.00,2,Fog,97
2013-9-30,69,58,46,49,46,43,93,79,43,30.15,30.09,29.99,10,6,0,6,1,,0.00,3,Fog,94